Time;durP1;ratioP1;P1;durP2;ratioP2;P2;SDS_P1;SDS_P2;PMS_P1;PMS_P2;Temp;Humidity;BMP_temperature;BMP_pressure;BME280_temperature;BME280_humidity;BME280_pressure;Samples;Min_cycle;Max_cycle;Signal;HPM_P1;HPM_P2
2022/08/19 00:01:49;;;;;;;14.82;9.38;;;;;;;;;;10056986;28;20643;-67
2022/08/19 00:06:48;;;;;;;14.48;10.15;;;;;;;;;;10055024;28;20043;-69
2022/08/19 00:11:45;;;;;;;18.88;14.32;;;;;;;;;;10053765;28;20073;-68
2022/08/19 00:16:43;;;;;;;22.10;15.05;;;;;;;;;;10049311;28;20102;-68
2022/08/19 00:21:39;;;;;;;26.85;17.98;;;;;;;;;;10056701;28;20079;-68
2022/08/19 00:26:36;;;;;;;28.67;18.75;;;;;;;;;;10061913;28;20734;-67
2022/08/19 00:31:33;;;;;;;27.05;16.98;;;;;;;;;;10065442;28;20074;-66
2022/08/19 00:36:29;;;;;;;24.55;15.55;;;;;;;;;;10057672;28;20067;-68
2022/08/19 00:41:26;;;;;;;24.15;15.18;;;;;;;;;;10058878;28;20071;-68
2022/08/19 00:46:22;;;;;;;25.75;16.58;;;;;;;;;;10061331;28;20484;-67
2022/08/19 00:51:18;;;;;;;25.30;15.70;;;;;;;;;;10054839;29;20122;-67
2022/08/19 00:56:15;;;;;;;26.58;17.98;;;;;;;;;;10068382;28;20134;-68
2022/08/19 01:01:11;;;;;;;27.75;17.55;;;;;;;;;;10070221;28;20086;-68
2022/08/19 01:06:08;;;;;;;27.02;16.80;;;;;;;;;;10064631;28;20514;-67
2022/08/19 01:11:04;;;;;;;30.50;17.13;;;;;;;;;;10063566;28;20102;-68
2022/08/19 01:16:03;;;;;;;26.25;16.83;;;;;;;;;;10045459;28;20137;-68
2022/08/19 01:21:02;;;;;;;25.25;16.75;;;;;;;;;;10069355;28;20051;-67
2022/08/19 01:25:58;;;;;;;24.60;15.23;;;;;;;;;;10058625;28;20134;-67
2022/08/19 01:30:54;;;;;;;25.77;15.27;;;;;;;;;;10068257;28;20142;-66
2022/08/19 01:35:52;;;;;;;25.67;17.30;;;;;;;;;;10041571;28;20134;-66
2022/08/19 01:40:48;;;;;;;27.70;16.27;;;;;;;;;;10066076;28;20098;-68
2022/08/19 01:45:45;;;;;;;24.23;14.85;;;;;;;;;;10058303;28;20051;-67
2022/08/19 01:50:43;;;;;;;24.40;16.02;;;;;;;;;;10062659;28;20071;-67
2022/08/19 01:55:41;;;;;;;21.60;15.05;;;;;;;;;;10043024;28;20054;-68
2022/08/19 02:00:37;;;;;;;25.95;15.93;;;;;;;;;;10069845;28;20085;-68
2022/08/19 02:05:34;;;;;;;28.02;18.08;;;;;;;;;;10056070;28;20047;-67
2022/08/19 02:10:31;;;;;;;34.17;18.98;;;;;;;;;;10070287;28;20125;-67
2022/08/19 02:15:28;;;;;;;25.27;16.73;;;;;;;;;;10061249;28;20560;-67
2022/08/19 02:20:24;;;;;;;25.25;16.48;;;;;;;;;;10051862;28;20049;-67
2022/08/19 02:25:20;;;;;;;26.45;16.20;;;;;;;;;;10057666;28;20142;-67
2022/08/19 02:30:18;;;;;;;30.30;18.85;;;;;;;;;;10057585;28;20545;-69
2022/08/19 02:35:15;;;;;;;29.48;19.02;;;;;;;;;;10060743;28;20387;-68
2022/08/19 02:40:12;;;;;;;27.90;17.58;;;;;;;;;;10058703;28;20052;-68
2022/08/19 02:45:09;;;;;;;28.67;17.48;;;;;;;;;;10050352;29;20482;-68
2022/08/19 02:50:06;;;;;;;31.08;17.15;;;;;;;;;;10051243;29;20051;-69
2022/08/19 02:55:02;;;;;;;31.20;18.80;;;;;;;;;;10056640;28;20138;-68
2022/08/19 02:59:58;;;;;;;32.30;19.20;;;;;;;;;;10067053;28;20045;-69
2022/08/19 03:04:55;;;;;;;38.38;21.13;;;;;;;;;;10070702;28;20134;-69
2022/08/19 03:09:51;;;;;;;35.10;19.83;;;;;;;;;;10028176;28;20130;-68
2022/08/19 03:14:47;;;;;;;38.00;21.73;;;;;;;;;;10027497;28;20075;-68
2022/08/19 03:19:44;;;;;;;33.45;18.98;;;;;;;;;;10059780;28;20075;-67
2022/08/19 03:24:40;;;;;;;38.65;19.85;;;;;;;;;;10054925;28;20149;-67
2022/08/19 03:29:38;;;;;;;37.47;19.02;;;;;;;;;;10058196;28;20502;-68
2022/08/19 03:34:39;;;;;;;;;;;;;;;;;;10054453;28;20049;-69
2022/08/19 03:39:36;;;;;;;39.00;20.90;;;;;;;;;;10052962;28;19926;-69
2022/08/19 03:44:33;;;;;;;40.83;19.75;;;;;;;;;;10052217;28;20067;-69
2022/08/19 03:49:30;;;;;;;38.78;20.38;;;;;;;;;;10068176;28;20793;-69
2022/08/19 03:54:27;;;;;;;40.15;20.48;;;;;;;;;;10038194;28;20156;-69
2022/08/19 03:59:25;;;;;;;39.65;20.42;;;;;;;;;;10045912;28;20048;-68
2022/08/19 04:04:22;;;;;;;37.35;17.35;;;;;;;;;;10049785;28;20044;-68
2022/08/19 04:09:19;;;;;;;38.05;20.75;;;;;;;;;;10057435;28;20113;-68
2022/08/19 04:14:17;;;;;;;35.55;19.20;;;;;;;;;;10056276;28;20134;-68
2022/08/19 04:19:14;;;;;;;27.67;17.08;;;;;;;;;;10051288;28;20736;-68
2022/08/19 04:24:11;;;;;;;34.17;16.80;;;;;;;;;;10048489;28;20051;-67
2022/08/19 04:29:10;;;;;;;35.63;17.75;;;;;;;;;;10046972;28;20110;-69
2022/08/19 04:34:10;;;;;;;45.15;21.50;;;;;;;;;;10054266;28;20126;-68
2022/08/19 04:39:08;;;;;;;35.78;19.48;;;;;;;;;;10053756;28;20047;-68
2022/08/19 04:44:07;;;;;;;39.13;20.98;;;;;;;;;;10055559;28;20055;-68
2022/08/19 04:49:04;;;;;;;48.53;22.23;;;;;;;;;;10037289;28;20062;-67
2022/08/19 04:54:09;;;;;;;46.13;23.90;;;;;;;;;;10051332;28;20059;-68
2022/08/19 04:59:06;;;;;;;36.42;21.80;;;;;;;;;;10044771;28;20062;-68
2022/08/19 05:04:04;;;;;;;43.90;24.45;;;;;;;;;;10050310;28;20102;-68
2022/08/19 05:09:02;;;;;;;41.47;23.20;;;;;;;;;;10050438;28;20056;-68
2022/08/19 05:14:01;;;;;;;52.80;28.02;;;;;;;;;;10055470;28;20627;-68
2022/08/19 05:24:13;;;;;;;45.83;22.90;;;;;;;;;;10043234;28;20475;-68
2022/08/19 05:29:10;;;;;;;40.85;24.70;;;;;;;;;;10044939;28;20101;-68
2022/08/19 05:34:07;;;;;;;46.58;24.63;;;;;;;;;;10041981;28;20051;-68
2022/08/19 05:39:18;;;;;;;44.38;26.42;;;;;;;;;;10050934;28;20103;-67
2022/08/19 05:44:15;;;;;;;41.10;25.92;;;;;;;;;;10057394;28;20578;-67
2022/08/19 05:49:11;;;;;;;41.45;24.90;;;;;;;;;;10058380;28;20090;-68
2022/08/19 05:54:08;;;;;;;43.50;26.40;;;;;;;;;;10060974;28;20103;-67
2022/08/19 05:59:09;;;;;;;40.60;24.00;;;;;;;;;;10052784;28;20079;-67
2022/08/19 06:04:06;;;;;;;36.83;23.98;;;;;;;;;;10067443;28;20561;-67
2022/08/19 06:09:06;;;;;;;36.72;22.95;;;;;;;;;;10054204;28;20522;-68
2022/08/19 06:14:03;;;;;;;46.10;26.08;;;;;;;;;;10053601;28;20185;-67
2022/08/19 06:19:01;;;;;;;36.08;22.25;;;;;;;;;;10060391;28;20055;-67
2022/08/19 06:23:58;;;;;;;41.60;21.65;;;;;;;;;;10058286;28;21142;-68
2022/08/19 06:28:54;;;;;;;37.90;22.13;;;;;;;;;;10047939;28;20075;-67
2022/08/19 06:33:50;;;;;;;34.63;21.42;;;;;;;;;;10047658;28;20039;-70
2022/08/19 06:38:47;;;;;;;50.20;27.10;;;;;;;;;;10052121;28;20047;-70
2022/08/19 06:43:43;;;;;;;37.13;22.95;;;;;;;;;;10047155;28;20040;-70
2022/08/19 06:48:41;;;;;;;37.53;23.73;;;;;;;;;;10052404;28;20071;-70
2022/08/19 06:53:46;;;;;;;44.70;26.33;;;;;;;;;;10056760;28;20131;-71
2022/08/19 06:58:44;;;;;;;40.38;25.65;;;;;;;;;;10038950;28;20067;-72
2022/08/19 07:03:40;;;;;;;39.38;23.65;;;;;;;;;;10064197;28;20075;-72
2022/08/19 07:08:40;;;;;;;40.17;24.48;;;;;;;;;;10064706;28;20098;-72
2022/08/19 07:13:39;;;;;;;38.90;23.15;;;;;;;;;;10047270;28;20044;-72
2022/08/19 07:18:37;;;;;;;40.35;24.88;;;;;;;;;;10040768;28;20150;-72
2022/08/19 07:23:33;;;;;;;49.85;26.52;;;;;;;;;;10047208;28;20145;-70
2022/08/19 07:28:30;;;;;;;46.97;25.45;;;;;;;;;;10050869;28;20466;-70
2022/08/19 07:33:27;;;;;;;46.92;26.20;;;;;;;;;;10066176;28;20502;-72
2022/08/19 07:38:24;;;;;;;44.70;27.58;;;;;;;;;;10052693;28;20543;-73
2022/08/19 07:43:25;;;;;;;51.17;27.45;;;;;;;;;;10061092;28;20078;-70
2022/08/19 07:48:30;;;;;;;43.03;24.92;;;;;;;;;;10053128;28;20075;-71
2022/08/19 07:53:26;;;;;;;44.63;26.15;;;;;;;;;;10054483;28;20102;-71
2022/08/19 07:58:23;;;;;;;38.33;23.30;;;;;;;;;;10044043;28;20182;-72
2022/08/19 08:09:10;;;;;;;42.40;23.70;;;;;;;;;;10058749;28;20552;-71
2022/08/19 08:13:53;;;;;;;34.10;20.80;;;;;;;;;;10055193;28;20514;-71
2022/08/19 08:18:57;;;;;;;33.72;20.02;;;;;;;;;;10044275;28;20054;-72
2022/08/19 08:23:55;;;;;;;35.67;22.08;;;;;;;;;;10045857;28;20075;-70
2022/08/19 08:28:52;;;;;;;34.97;22.05;;;;;;;;;;10042825;28;20063;-72
2022/08/19 08:33:48;;;;;;;31.70;19.70;;;;;;;;;;10050892;28;20071;-70
2022/08/19 08:38:45;;;;;;;30.60;18.85;;;;;;;;;;10049011;28;20040;-72
2022/08/19 08:43:45;;;;;;;32.30;19.80;;;;;;;;;;10051979;28;20078;-72
2022/08/19 08:49:08;;;;;;;31.45;18.90;;;;;;;;;;10043211;28;20749;-72
2022/08/19 08:54:06;;;;;;;28.90;18.92;;;;;;;;;;10007824;29;20060;-72
2022/08/19 08:59:08;;;;;;;24.10;12.45;;;;;;;;;;10056300;28;20476;-72
2022/08/19 09:04:05;;;;;;;20.50;12.48;;;;;;;;;;10049484;28;20075;-73
2022/08/19 09:09:12;;;;;;;22.30;12.25;;;;;;;;;;10054300;28;20126;-74
2022/08/19 09:14:08;;;;;;;20.65;13.35;;;;;;;;;;10050540;28;20146;-73
2022/08/19 09:19:24;;;;;;;23.95;12.95;;;;;;;;;;10047586;28;20042;-73
2022/08/19 09:24:26;;;;;;;26.27;15.35;;;;;;;;;;10050147;28;20084;-73
2022/08/19 09:29:26;;;;;;;22.63;14.68;;;;;;;;;;10046025;28;20066;-73
2022/08/19 09:34:22;;;;;;;23.20;15.30;;;;;;;;;;10059661;28;20067;-71
2022/08/19 09:39:19;;;;;;;25.10;17.05;;;;;;;;;;10062141;28;20097;-72
2022/08/19 09:44:16;;;;;;;26.80;14.80;;;;;;;;;;10057053;28;20047;-73
2022/08/19 09:49:14;;;;;;;29.27;15.25;;;;;;;;;;10045064;28;20134;-72
2022/08/19 09:54:10;;;;;;;26.65;15.77;;;;;;;;;;10046595;28;20529;-72
2022/08/19 09:59:07;;;;;;;23.13;14.38;;;;;;;;;;10043959;28;20142;-72
2022/08/19 10:04:08;;;;;;;28.52;16.25;;;;;;;;;;10048874;28;20086;-72
2022/08/19 10:09:17;;;;;;;32.38;15.32;;;;;;;;;;10039939;28;20474;-73
2022/08/19 10:14:29;;;;;;;22.73;14.40;;;;;;;;;;10053787;28;20050;-72
2022/08/19 10:19:29;;;;;;;26.85;12.98;;;;;;;;;;10049902;28;21846;-73
2022/08/19 10:24:27;;;;;;;23.67;14.27;;;;;;;;;;10055264;28;20097;-73
2022/08/19 10:29:23;;;;;;;22.58;14.18;;;;;;;;;;10045653;28;20086;-73
2022/08/19 10:34:29;;;;;;;25.33;14.02;;;;;;;;;;10046663;28;20048;-73
2022/08/19 10:39:28;;;;;;;23.95;15.18;;;;;;;;;;10055097;28;20082;-73
2022/08/19 10:44:28;;;;;;;24.45;14.10;;;;;;;;;;10042637;28;20533;-73
2022/08/19 10:49:27;;;;;;;28.63;15.75;;;;;;;;;;10052415;28;20517;-73
2022/08/19 10:56:50;;;;;;;26.75;17.33;;;;;;;;;;10059094;28;20537;-73
2022/08/19 10:59:40;;;;;;;25.63;16.60;;;;;;;;;;10059407;28;20039;-72
2022/08/19 11:04:38;;;;;;;27.63;16.48;;;;;;;;;;10052765;28;20056;-73
2022/08/19 11:09:39;;;;;;;27.08;17.20;;;;;;;;;;10047041;28;20046;-72
2022/08/19 11:14:36;;;;;;;27.05;16.00;;;;;;;;;;10047951;28;20082;-72
2022/08/19 11:19:32;;;;;;;26.38;15.88;;;;;;;;;;10047285;28;20487;-72
2022/08/19 11:24:30;;;;;;;25.58;16.73;;;;;;;;;;10045395;28;20040;-72
2022/08/19 11:29:28;;;;;;;26.90;15.85;;;;;;;;;;10044224;28;20582;-72
2022/08/19 11:34:27;;;;;;;31.48;16.27;;;;;;;;;;10043347;28;20409;-70
2022/08/19 11:39:24;;;;;;;27.42;16.38;;;;;;;;;;10053318;28;20565;-70
2022/08/19 11:44:20;;;;;;;21.15;14.07;;;;;;;;;;10054652;28;20066;-72
2022/08/19 11:49:18;;;;;;;19.58;13.45;;;;;;;;;;10047311;28;20047;-73
2022/08/19 11:54:18;;;;;;;23.52;15.32;;;;;;;;;;10043341;28;20051;-72
2022/08/19 11:59:14;;;;;;;21.92;15.95;;;;;;;;;;10048424;28;20047;-73
2022/08/19 12:04:11;;;;;;;21.30;14.27;;;;;;;;;;10053287;28;20050;-72
2022/08/19 12:09:09;;;;;;;15.32;11.27;;;;;;;;;;10041528;28;21510;-73
2022/08/19 12:14:11;;;;;;;17.75;11.68;;;;;;;;;;10046897;28;20055;-72
2022/08/19 12:19:10;;;;;;;18.95;12.57;;;;;;;;;;10041623;28;20043;-71
2022/08/19 12:24:07;;;;;;;15.85;10.82;;;;;;;;;;10050939;28;20051;-70
2022/08/19 12:29:03;;;;;;;17.08;11.35;;;;;;;;;;10047551;28;20473;-71
2022/08/19 12:34:01;;;;;;;17.10;11.27;;;;;;;;;;10030195;28;20083;-70
2022/08/19 12:38:58;;;;;;;18.60;11.25;;;;;;;;;;10053598;28;20047;-70
2022/08/19 12:43:55;;;;;;;17.10;11.00;;;;;;;;;;10045995;28;20146;-71
2022/08/19 12:48:52;;;;;;;16.88;11.98;;;;;;;;;;10061972;28;20075;-71
2022/08/19 12:53:51;;;;;;;16.88;10.73;;;;;;;;;;10060909;28;20047;-70
2022/08/19 12:58:47;;;;;;;14.55;10.30;;;;;;;;;;10051101;28;20095;-70
2022/08/19 13:03:46;;;;;;;16.10;13.00;;;;;;;;;;10044971;28;21754;-70
2022/08/19 13:08:43;;;;;;;14.88;10.63;;;;;;;;;;10047957;28;20094;-70
2022/08/19 13:13:42;;;;;;;19.90;11.73;;;;;;;;;;10052952;28;20568;-70
2022/08/19 13:18:39;;;;;;;13.48;9.85;;;;;;;;;;10048767;28;20569;-70
2022/08/19 13:23:35;;;;;;;14.80;10.43;;;;;;;;;;10054766;28;20079;-70
2022/08/19 13:33:47;;;;;;;14.25;10.80;;;;;;;;;;10056564;28;20079;-70
2022/08/19 13:38:44;;;;;;;14.18;10.60;;;;;;;;;;10064325;28;20059;-70
2022/08/19 13:43:41;;;;;;;13.57;10.20;;;;;;;;;;10059044;28;20122;-70
2022/08/19 13:48:37;;;;;;;16.13;10.05;;;;;;;;;;10058602;28;21494;-70
2022/08/19 13:53:34;;;;;;;14.20;10.30;;;;;;;;;;10062482;28;20047;-70
2022/08/19 13:58:31;;;;;;;14.48;11.70;;;;;;;;;;10057822;28;20047;-70
2022/08/19 14:03:28;;;;;;;13.32;10.80;;;;;;;;;;10063634;28;20143;-74
2022/08/19 14:08:27;;;;;;;13.25;10.63;;;;;;;;;;10054495;28;20088;-70
2022/08/19 14:13:24;;;;;;;14.07;10.77;;;;;;;;;;10056642;28;20050;-70
2022/08/19 14:18:20;;;;;;;12.05;10.75;;;;;;;;;;10043041;28;20051;-70
2022/08/19 14:23:17;;;;;;;12.70;10.02;;;;;;;;;;10045654;28;20134;-70
2022/08/19 14:28:16;;;;;;;12.60;9.93;;;;;;;;;;10047645;28;20134;-70
2022/08/19 14:33:14;;;;;;;12.13;10.82;;;;;;;;;;10055551;28;20065;-70
2022/08/19 14:38:15;;;;;;;14.00;11.60;;;;;;;;;;10051043;28;20059;-70
2022/08/19 14:43:11;;;;;;;12.55;10.50;;;;;;;;;;10048975;28;20524;-70
2022/08/19 14:48:08;;;;;;;16.17;12.57;;;;;;;;;;10052694;28;20736;-70
2022/08/19 14:53:15;;;;;;;12.98;11.50;;;;;;;;;;10049900;28;20043;-70
2022/08/19 14:58:13;;;;;;;12.15;10.55;;;;;;;;;;10049923;28;20047;-71
2022/08/19 15:03:25;;;;;;;13.43;11.50;;;;;;;;;;10050525;28;20048;-70
2022/08/19 15:08:24;;;;;;;12.38;10.45;;;;;;;;;;10053728;28;20560;-70
2022/08/19 15:13:21;;;;;;;11.68;10.45;;;;;;;;;;10048961;28;20079;-70
2022/08/19 15:18:20;;;;;;;13.40;11.43;;;;;;;;;;10047182;28;20098;-69
2022/08/19 15:23:18;;;;;;;14.68;12.35;;;;;;;;;;10043856;28;20636;-69
2022/08/19 15:28:16;;;;;;;12.95;11.40;;;;;;;;;;10042185;28;20077;-69
2022/08/19 15:33:17;;;;;;;12.48;10.27;;;;;;;;;;10054726;28;20044;-69
2022/08/19 15:38:13;;;;;;;15.33;11.30;;;;;;;;;;10048440;28;20706;-69
2022/08/19 15:43:10;;;;;;;15.68;12.07;;;;;;;;;;10045887;28;20561;-69
2022/08/19 15:48:06;;;;;;;12.40;10.57;;;;;;;;;;10042363;28;20055;-70
2022/08/19 15:53:05;;;;;;;14.52;11.57;;;;;;;;;;10052872;28;20055;-70
2022/08/19 16:08:43;;;;;;;13.60;11.82;;;;;;;;;;10039696;28;20048;-69
2022/08/19 16:13:44;;;;;;;11.05;9.95;;;;;;;;;;10058655;28;20154;-68
2022/08/19 16:18:41;;;;;;;13.20;10.50;;;;;;;;;;10054898;28;20141;-68
2022/08/19 16:23:37;;;;;;;9.48;8.48;;;;;;;;;;10050723;28;20199;-68
2022/08/19 16:28:34;;;;;;;11.82;10.63;;;;;;;;;;10050773;28;20122;-68
2022/08/19 16:33:30;;;;;;;13.30;11.75;;;;;;;;;;10047208;28;20501;-68
2022/08/19 16:38:27;;;;;;;12.45;11.25;;;;;;;;;;10046359;28;20059;-68
2022/08/19 16:43:24;;;;;;;11.27;10.07;;;;;;;;;;10056018;28;20079;-68
2022/08/19 16:48:22;;;;;;;14.85;13.20;;;;;;;;;;10052383;28;20051;-68
2022/08/19 16:53:22;;;;;;;11.52;10.43;;;;;;;;;;10057068;28;20138;-68
2022/08/19 16:58:25;;;;;;;10.23;9.32;;;;;;;;;;10050341;28;20078;-68
2022/08/19 17:03:23;;;;;;;11.48;10.48;;;;;;;;;;10064143;28;20047;-68
2022/08/19 17:08:31;;;;;;;11.07;10.07;;;;;;;;;;10038118;28;20047;-68
2022/08/19 17:13:28;;;;;;;11.57;10.02;;;;;;;;;;10049785;29;20552;-68
2022/08/19 17:18:25;;;;;;;11.38;10.27;;;;;;;;;;10055387;28;20075;-68
2022/08/19 17:23:27;;;;;;;13.45;10.73;;;;;;;;;;10056442;28;20074;-68
2022/08/19 17:28:39;;;;;;;12.85;11.55;;;;;;;;;;10054521;28;20441;-68
2022/08/19 17:33:35;;;;;;;12.85;11.43;;;;;;;;;;10072953;28;20146;-68
2022/08/19 17:38:37;;;;;;;12.77;11.50;;;;;;;;;;10061509;28;20095;-69
2022/08/19 17:43:34;;;;;;;14.05;11.40;;;;;;;;;;10066346;28;20039;-68
2022/08/19 17:48:38;;;;;;;11.80;9.50;;;;;;;;;;10059377;28;20094;-68
2022/08/19 17:53:35;;;;;;;13.60;10.93;;;;;;;;;;10053298;28;20047;-68
2022/08/19 17:58:31;;;;;;;13.13;11.38;;;;;;;;;;10061708;28;20494;-68
2022/08/19 18:03:29;;;;;;;12.82;10.70;;;;;;;;;;10056197;28;20078;-68
2022/08/19 18:08:25;;;;;;;10.40;9.30;;;;;;;;;;10068625;28;20043;-68
2022/08/19 18:13:21;;;;;;;12.25;10.32;;;;;;;;;;10064400;28;20048;-68
2022/08/19 18:18:18;;;;;;;13.82;11.20;;;;;;;;;;10063949;28;20078;-69
2022/08/19 18:23:14;;;;;;;11.48;10.27;;;;;;;;;;10069774;28;20174;-68
2022/08/19 18:28:31;;;;;;;12.90;10.18;;;;;;;;;;10059749;28;20626;-68
2022/08/19 18:33:27;;;;;;;11.25;10.00;;;;;;;;;;10063585;28;20083;-68
2022/08/19 18:49:06;;;;;;;13.68;10.38;;;;;;;;;;10063656;28;20122;-69
2022/08/19 18:54:02;;;;;;;13.65;10.50;;;;;;;;;;10055951;28;20126;-68
2022/08/19 18:58:59;;;;;;;11.82;9.23;;;;;;;;;;10065869;28;20043;-68
2022/08/19 19:03:58;;;;;;;10.75;9.65;;;;;;;;;;10063075;28;20106;-68
2022/08/19 19:08:55;;;;;;;11.27;9.32;;;;;;;;;;10067165;28;20047;-68
2022/08/19 19:13:52;;;;;;;14.32;12.05;;;;;;;;;;10066477;28;20457;-68
2022/08/19 19:18:51;;;;;;;13.55;10.30;;;;;;;;;;10059267;28;20051;-68
2022/08/19 19:23:47;;;;;;;14.63;10.60;;;;;;;;;;10068473;28;20074;-68
2022/08/19 19:28:45;;;;;;;10.98;8.82;;;;;;;;;;10068173;28;20582;-68
2022/08/19 19:33:42;;;;;;;13.90;10.45;;;;;;;;;;10067856;28;20409;-68
2022/08/19 19:38:38;;;;;;;14.90;11.60;;;;;;;;;;10060913;28;20482;-68
2022/08/19 19:43:35;;;;;;;14.98;10.90;;;;;;;;;;10067556;28;20152;-68
2022/08/19 19:48:37;;;;;;;17.88;12.10;;;;;;;;;;10044435;28;20051;-68
2022/08/19 19:53:33;;;;;;;17.50;12.55;;;;;;;;;;10061094;28;20051;-69
2022/08/19 19:58:31;;;;;;;17.15;12.38;;;;;;;;;;10048274;28;20039;-68
2022/08/19 20:03:27;;;;;;;12.93;11.23;;;;;;;;;;10065160;28;20545;-68
2022/08/19 20:13:41;;;;;;;13.00;10.57;;;;;;;;;;10051588;28;20074;-69
2022/08/19 20:18:37;;;;;;;17.00;11.50;;;;;;;;;;10043651;28;20154;-68
2022/08/19 20:23:34;;;;;;;11.85;10.27;;;;;;;;;;10060146;28;20047;-73
2022/08/19 20:28:30;;;;;;;15.55;12.75;;;;;;;;;;10059047;28;20081;-67
2022/08/19 20:33:28;;;;;;;16.58;11.95;;;;;;;;;;10050650;28;20151;-68
2022/08/19 20:38:25;;;;;;;16.08;13.32;;;;;;;;;;10055060;28;20098;-68
2022/08/19 20:43:21;;;;;;;14.48;12.40;;;;;;;;;;10055658;28;20130;-68
2022/08/19 20:48:18;;;;;;;15.77;12.75;;;;;;;;;;10063311;28;20151;-68
2022/08/19 20:53:15;;;;;;;15.07;12.25;;;;;;;;;;10061784;28;20075;-67
2022/08/19 20:58:12;;;;;;;15.48;13.18;;;;;;;;;;10066904;28;20133;-66
2022/08/19 21:03:08;;;;;;;16.42;13.15;;;;;;;;;;10066129;28;20122;-68
2022/08/19 21:08:04;;;;;;;17.08;13.48;;;;;;;;;;10066530;28;20080;-68
2022/08/19 21:13:02;;;;;;;18.27;12.25;;;;;;;;;;10060568;28;20214;-68
2022/08/19 21:17:58;;;;;;;18.50;13.82;;;;;;;;;;10061496;28;20047;-68
2022/08/19 21:22:55;;;;;;;14.77;12.88;;;;;;;;;;10069822;28;20083;-67
2022/08/19 21:27:51;;;;;;;19.08;13.98;;;;;;;;;;10049080;28;20432;-67
2022/08/19 21:32:47;;;;;;;15.82;13.63;;;;;;;;;;10069656;28;20070;-67
2022/08/19 21:37:48;;;;;;;19.73;15.10;;;;;;;;;;10069082;28;20429;-67
2022/08/19 21:42:45;;;;;;;17.70;14.65;;;;;;;;;;10067419;28;20047;-67
2022/08/19 21:47:41;;;;;;;20.15;15.85;;;;;;;;;;10071932;28;20075;-66
2022/08/19 21:52:38;;;;;;;17.90;14.65;;;;;;;;;;10067500;28;20074;-66
2022/08/19 21:57:35;;;;;;;19.00;14.68;;;;;;;;;;10069897;28;20101;-66
2022/08/19 22:02:31;;;;;;;17.45;14.02;;;;;;;;;;10067587;28;20146;-66
2022/08/19 22:07:27;;;;;;;18.98;15.40;;;;;;;;;;10065062;28;20051;-68
2022/08/19 22:12:26;;;;;;;16.88;14.48;;;;;;;;;;10071476;28;20134;-68
2022/08/19 22:17:23;;;;;;;17.95;14.27;;;;;;;;;;10065915;28;20059;-68
2022/08/19 22:22:20;;;;;;;18.67;15.48;;;;;;;;;;10068268;28;20043;-67
2022/08/19 22:27:17;;;;;;;18.60;15.40;;;;;;;;;;10061078;28;20082;-67
2022/08/19 22:32:16;;;;;;;16.48;14.18;;;;;;;;;;10071083;28;20797;-67
2022/08/19 22:37:24;;;;;;;19.45;15.20;;;;;;;;;;10068346;28;20052;-67
2022/08/19 22:42:21;;;;;;;17.05;14.02;;;;;;;;;;10065413;28;20075;-67
2022/08/19 22:47:17;;;;;;;17.70;14.15;;;;;;;;;;10067331;28;20051;-67
2022/08/19 22:52:17;;;;;;;16.35;14.10;;;;;;;;;;10060992;28;20150;-67
2022/08/19 22:57:14;;;;;;;18.50;15.13;;;;;;;;;;10065544;28;20121;-67
2022/08/19 23:02:16;;;;;;;17.30;14.85;;;;;;;;;;10057974;28;20454;-66
2022/08/19 23:07:13;;;;;;;20.15;15.23;;;;;;;;;;10050816;28;20047;-67
2022/08/19 23:12:12;;;;;;;16.45;14.32;;;;;;;;;;10065446;28;20525;-67
2022/08/19 23:17:08;;;;;;;17.52;14.20;;;;;;;;;;10059392;28;20047;-66
2022/08/19 23:22:04;;;;;;;15.60;12.52;;;;;;;;;;10061188;28;20914;-66
2022/08/19 23:32:18;;;;;;;16.40;12.55;;;;;;;;;;10054238;28;20078;-67
2022/08/19 23:37:15;;;;;;;17.08;13.27;;;;;;;;;;10065486;28;20138;-67
2022/08/19 23:42:12;;;;;;;16.00;12.80;;;;;;;;;;10069413;28;20138;-67
2022/08/19 23:47:08;;;;;;;16.73;12.75;;;;;;;;;;10059413;28;20497;-67
2022/08/19 23:52:05;;;;;;;15.88;11.02;;;;;;;;;;10066751;28;20498;-66
2022/08/19 23:57:01;;;;;;;12.55;10.25;;;;;;;;;;10059931;28;20143;-66
